createdAt,value
2018-03-03T00:00:23.879Z,-3.20
2018-03-03T00:02:52.293Z,-3.40
2018-03-03T00:05:21.506Z,-3.50
2018-03-03T00:07:50.863Z,-3.50
2018-03-03T00:10:19.265Z,-3.50
2018-03-03T00:12:47.676Z,-3.50
2018-03-03T00:15:16.097Z,-3.40
2018-03-03T00:17:44.495Z,-3.40
2018-03-03T00:20:12.921Z,-3.50
2018-03-03T00:22:41.247Z,-3.50
2018-03-03T00:25:09.320Z,-3.30
2018-03-03T00:27:37.746Z,-3.20
2018-03-03T00:30:06.152Z,-3.10
2018-03-03T00:32:34.593Z,-3.20
2018-03-03T00:35:03.006Z,-3.30
2018-03-03T00:37:31.601Z,-3.40
2018-03-03T00:39:59.655Z,-3.30
2018-03-03T00:42:28.063Z,-3.20
2018-03-03T00:44:56.488Z,-3.20
2018-03-03T00:47:25.633Z,-3.30
2018-03-03T00:49:54.051Z,-3.30
2018-03-03T00:52:22.439Z,-3.40
2018-03-03T00:54:50.872Z,-3.40
2018-03-03T00:57:19.278Z,-3.40
2018-03-03T00:59:47.694Z,-3.40
2018-03-03T01:02:16.120Z,-3.40
2018-03-03T01:04:45.299Z,-3.40
2018-03-03T01:07:13.738Z,-3.40
2018-03-03T01:09:42.169Z,-3.40
2018-03-03T01:12:11.348Z,-3.30
2018-03-03T01:14:42.696Z,-3.40
2018-03-03T01:17:11.130Z,-3.40
2018-03-03T01:19:39.533Z,-3.40
2018-03-03T01:22:07.951Z,-3.50
2018-03-03T01:24:37.106Z,-3.40
2018-03-03T01:27:05.508Z,-3.40
2018-03-03T01:29:33.935Z,-3.40
2018-03-03T01:32:02.326Z,-3.50
2018-03-03T01:34:30.731Z,-3.60
2018-03-03T01:36:59.155Z,-3.60
2018-03-03T01:39:27.564Z,-3.50
2018-03-03T01:41:56.005Z,-3.40
2018-03-03T01:44:25.050Z,-3.50
2018-03-03T01:46:53.442Z,-3.60
2018-03-03T01:49:21.876Z,-3.50
2018-03-03T01:51:50.313Z,-3.30
2018-03-03T01:54:19.466Z,-3.20
2018-03-03T01:56:47.884Z,-3.20
2018-03-03T01:59:17.056Z,-3.50
2018-03-03T02:01:45.478Z,-3.50
2018-03-03T02:04:13.890Z,-3.30
2018-03-03T02:06:42.300Z,-3.50
2018-03-03T02:09:10.732Z,-3.60
2018-03-03T02:11:39.123Z,-3.70
2018-03-03T02:14:07.533Z,-3.70
2018-03-03T02:16:35.947Z,-3.50
2018-03-03T02:19:04.368Z,-3.60
2018-03-03T02:21:32.976Z,-3.50
2018-03-03T02:24:01.375Z,-3.60
2018-03-03T02:26:29.836Z,-3.60
2018-03-03T02:28:58.345Z,-3.70
2018-03-03T02:31:26.737Z,-3.50
2018-03-03T02:33:55.263Z,-3.40
2018-03-03T02:36:23.986Z,-3.40
2018-03-03T02:38:53.554Z,-3.70
2018-03-03T02:41:21.970Z,-3.70
2018-03-03T02:43:51.173Z,-3.90
2018-03-03T02:46:20.344Z,-3.80
2018-03-03T02:48:48.743Z,-3.80
2018-03-03T02:51:17.934Z,-3.70
2018-03-03T02:53:47.094Z,-3.70
2018-03-03T02:56:15.501Z,-3.70
2018-03-03T02:58:43.775Z,-3.60
2018-03-03T03:01:12.185Z,-3.80
2018-03-03T03:03:40.603Z,-3.80
2018-03-03T03:06:09.048Z,-3.90
2018-03-03T03:08:37.448Z,-3.90
2018-03-03T03:11:05.838Z,-3.80
2018-03-03T03:13:34.273Z,-3.70
2018-03-03T03:16:02.673Z,-3.80
2018-03-03T03:18:31.072Z,-3.90
2018-03-03T03:20:59.514Z,-3.90
2018-03-03T03:23:27.737Z,-3.70
2018-03-03T03:25:56.127Z,-3.60
2018-03-03T03:28:25.495Z,-3.70
2018-03-03T03:30:54.668Z,-3.60
2018-03-03T03:33:23.173Z,-3.60
2018-03-03T03:35:51.597Z,-3.60
2018-03-03T03:38:20.794Z,-3.80
2018-03-03T03:40:49.964Z,-3.70
2018-03-03T03:43:18.399Z,-3.80
2018-03-03T03:45:46.819Z,-3.80
2018-03-03T03:48:15.248Z,-3.70
2018-03-03T03:50:43.643Z,-3.80
2018-03-03T03:53:12.038Z,-3.90
2018-03-03T03:55:40.463Z,-3.90
2018-03-03T03:58:09.623Z,-4.10
2018-03-03T04:00:38.044Z,-4.10
2018-03-03T04:03:06.462Z,-4.10
2018-03-03T04:05:34.875Z,-3.90
2018-03-03T04:08:03.285Z,-4.00
2018-03-03T04:10:31.712Z,-4.00
2018-03-03T04:13:00.106Z,-4.10
2018-03-03T04:15:28.503Z,-4.10
2018-03-03T04:17:57.697Z,-4.30
2018-03-03T04:20:26.856Z,-4.40
2018-03-03T04:22:56.046Z,-4.40
2018-03-03T04:25:25.101Z,-4.40
2018-03-03T04:27:54.012Z,-4.40
2018-03-03T04:30:22.412Z,-4.30
2018-03-03T04:32:50.648Z,-4.30
2018-03-03T04:35:18.859Z,-4.20
2018-03-03T04:37:47.069Z,-4.20
2018-03-03T04:40:16.251Z,-4.40
2018-03-03T04:42:44.643Z,-4.40
2018-03-03T04:45:13.653Z,-4.60
2018-03-03T04:47:41.871Z,-4.60
2018-03-03T04:50:10.070Z,-4.40
2018-03-03T04:52:38.308Z,-4.40
2018-03-03T04:55:06.510Z,-4.40
2018-03-03T04:57:34.739Z,-4.40
2018-03-03T05:03:26.526Z,-4.30
2018-03-03T05:06:01.318Z,-4.30
2018-03-03T05:08:30.001Z,-4.30
2018-03-03T05:10:58.206Z,-4.40
2018-03-03T05:13:46.083Z,-4.40
2018-03-03T05:16:23.136Z,-4.50
2018-03-03T05:18:56.925Z,-4.50
2018-03-03T05:21:30.906Z,-4.40
2018-03-03T05:24:04.679Z,-4.40
2018-03-03T05:26:38.653Z,-4.40
2018-03-03T05:29:21.774Z,-4.50
2018-03-03T05:31:55.724Z,-4.40
2018-03-03T05:34:38.866Z,-4.50
2018-03-03T05:37:26.914Z,-4.40
2018-03-03T05:40:01.687Z,-4.20
2018-03-03T05:42:36.310Z,-4.20
2018-03-03T05:45:11.544Z,-4.40
2018-03-03T05:47:43.133Z,-4.50
2018-03-03T05:53:31.970Z,-4.60
2018-03-03T05:56:04.527Z,-4.50
2018-03-03T05:58:47.669Z,-4.50
2018-03-03T06:01:21.571Z,-4.50
2018-03-03T06:03:54.566Z,-4.60
2018-03-03T06:06:32.215Z,-4.70
2018-03-03T06:09:04.032Z,-4.70
2018-03-03T06:11:33.013Z,-4.60
2018-03-03T06:14:01.997Z,-4.60
2018-03-03T06:16:30.440Z,-4.60
2018-03-03T06:18:58.834Z,-4.60
2018-03-03T06:21:27.226Z,-4.60
2018-03-03T06:23:56.426Z,-4.50
2018-03-03T06:26:24.824Z,-4.30
2018-03-03T06:28:53.987Z,-4.30
2018-03-03T06:31:22.415Z,-4.30
2018-03-03T06:33:50.820Z,-4.20
2018-03-03T06:36:19.228Z,-4.30
2018-03-03T06:38:47.648Z,-4.40
2018-03-03T06:41:16.050Z,-4.40
2018-03-03T06:43:44.458Z,-4.50
2018-03-03T06:46:12.897Z,-4.50
2018-03-03T06:48:41.502Z,-4.60
2018-03-03T06:51:09.943Z,-4.40
2018-03-03T06:53:38.331Z,-4.20
2018-03-03T06:56:06.760Z,-4.20
2018-03-03T06:58:35.962Z,-3.90
2018-03-03T07:01:05.152Z,-3.70
2018-03-03T07:03:33.566Z,-3.70
2018-03-03T07:06:02.262Z,-3.70
2018-03-03T07:08:30.481Z,-3.60
2018-03-03T07:10:58.924Z,-3.80
2018-03-03T07:13:27.143Z,-3.80
2018-03-03T07:15:55.398Z,-3.90
2018-03-03T07:18:24.015Z,-3.90
2018-03-03T07:20:53.258Z,-4.00
2018-03-03T07:23:21.688Z,-4.00
2018-03-03T07:25:50.857Z,-3.80
2018-03-03T07:28:19.285Z,-3.80
2018-03-03T07:30:48.640Z,-3.50
2018-03-03T07:33:17.031Z,-3.50
2018-03-03T07:35:46.221Z,-3.50
2018-03-03T07:38:14.629Z,-3.50
2018-03-03T07:40:43.744Z,-3.60
2018-03-03T07:43:12.136Z,-3.70
2018-03-03T07:45:40.532Z,-3.80
2018-03-03T07:48:08.948Z,-3.60
2018-03-03T07:50:37.970Z,-3.30
2018-03-03T07:53:06.374Z,-3.30
2018-03-03T07:55:34.778Z,-3.20
2018-03-03T07:58:03.998Z,-3.10
2018-03-03T08:00:32.437Z,-3.10
2018-03-03T08:03:00.677Z,-3.00
2018-03-03T08:05:28.896Z,-3.00
2018-03-03T08:07:57.104Z,-2.80
2018-03-03T08:10:26.094Z,-2.70
2018-03-03T08:12:54.521Z,-2.70
2018-03-03T08:15:23.277Z,-2.50
2018-03-03T08:17:51.678Z,-2.40
2018-03-03T08:20:20.257Z,-2.30
2018-03-03T08:22:48.696Z,-2.30
2018-03-03T08:25:17.114Z,-2.40
2018-03-03T08:27:45.534Z,-2.40
2018-03-03T08:30:14.709Z,-2.50
2018-03-03T08:32:43.117Z,-2.50
2018-03-03T08:35:12.423Z,-2.60
2018-03-03T08:37:40.634Z,-2.60
2018-03-03T08:40:09.060Z,-2.60
2018-03-03T08:42:38.224Z,-2.70
2018-03-03T08:45:06.662Z,-2.70
2018-03-03T08:47:35.093Z,-2.70
2018-03-03T08:50:03.524Z,-2.70
2018-03-03T08:52:31.781Z,-2.70
2018-03-03T08:55:00.177Z,-2.60
2018-03-03T08:57:28.572Z,-2.50
2018-03-03T08:59:56.802Z,-2.50
2018-03-03T09:02:25.958Z,-2.40
2018-03-03T09:04:54.357Z,-2.40
2018-03-03T09:07:24.186Z,-2.30
2018-03-03T09:09:52.617Z,-2.20
2018-03-03T09:12:21.064Z,-2.20
2018-03-03T09:14:49.497Z,-0.60
2018-03-03T09:17:17.940Z,-1.90
2018-03-03T09:19:46.353Z,-1.80
2018-03-03T09:22:14.759Z,-1.80
2018-03-03T09:24:43.182Z,-1.70
2018-03-03T09:27:11.584Z,-1.70
2018-03-03T09:29:39.995Z,-1.60
2018-03-03T09:32:08.396Z,-1.40
2018-03-03T09:34:36.826Z,-1.40
2018-03-03T09:37:06.025Z,-1.30
2018-03-03T09:39:35.188Z,-1.20
2018-03-03T09:42:03.624Z,-1.20
2018-03-03T09:44:32.972Z,-1.00
2018-03-03T09:47:01.417Z,-1.00
2018-03-03T09:49:29.638Z,-0.90
2018-03-03T09:51:58.038Z,-0.80
2018-03-03T09:54:27.228Z,-0.70
2018-03-03T09:56:56.392Z,-0.60
2018-03-03T09:59:25.532Z,-0.60
2018-03-03T10:02:05.922Z,-0.50
2018-03-03T10:04:24.147Z,-0.60
2018-03-03T10:06:52.544Z,-0.30
2018-03-03T10:09:20.969Z,-0.30
2018-03-03T10:11:49.938Z,0.00
2018-03-03T10:14:18.341Z,0.00
2018-03-03T10:16:47.525Z,0.20
2018-03-03T10:19:15.929Z,0.20
2018-03-03T10:21:44.328Z,0.20
2018-03-03T10:24:12.747Z,0.20
2018-03-03T10:26:41.155Z,0.30
2018-03-03T10:29:10.335Z,0.40
2018-03-03T10:31:39.487Z,0.50
2018-03-03T10:34:07.908Z,0.50
2018-03-03T10:36:37.068Z,0.50
2018-03-03T10:39:04.806Z,0.50
2018-03-03T10:41:33.236Z,0.50
2018-03-03T10:44:01.628Z,0.60
2018-03-03T10:46:30.774Z,0.90
2018-03-03T10:48:59.218Z,0.80
2018-03-03T10:51:27.613Z,0.90
2018-03-03T10:53:56.388Z,1.00
2018-03-03T10:56:25.146Z,1.00
2018-03-03T10:58:54.205Z,1.00
2018-03-03T11:01:22.608Z,1.10
2018-03-03T11:03:51.015Z,1.20
2018-03-03T11:06:20.188Z,1.40
2018-03-03T11:08:49.376Z,1.40
2018-03-03T11:11:17.963Z,1.40
2018-03-03T11:13:46.397Z,1.60
2018-03-03T11:16:14.789Z,1.60
2018-03-03T11:18:43.183Z,1.60
2018-03-03T11:21:11.592Z,1.60
2018-03-03T11:23:40.779Z,1.70
2018-03-03T11:26:10.010Z,1.80
2018-03-03T11:28:38.229Z,1.80
2018-03-03T11:31:06.639Z,1.80
2018-03-03T11:33:35.792Z,2.00
2018-03-03T11:36:04.170Z,2.00
2018-03-03T11:38:32.601Z,2.10
2018-03-03T11:41:00.994Z,2.30
2018-03-03T11:43:29.430Z,2.30
2018-03-03T11:45:58.589Z,2.20
2018-03-03T11:48:27.751Z,2.30
2018-03-03T11:50:56.354Z,2.30
2018-03-03T11:53:24.913Z,2.50
2018-03-03T11:55:53.510Z,2.50
2018-03-03T11:58:21.910Z,2.50
2018-03-03T12:00:50.117Z,2.50
2018-03-03T12:03:19.304Z,2.60
2018-03-03T12:05:47.705Z,2.60
2018-03-03T12:08:16.903Z,2.60
2018-03-03T12:10:46.060Z,2.70
2018-03-03T12:13:14.465Z,2.70
2018-03-03T12:15:43.648Z,3.00
2018-03-03T12:18:12.032Z,2.90
2018-03-03T12:20:40.441Z,3.10
2018-03-03T12:23:08.847Z,3.20
2018-03-03T12:25:37.275Z,3.20
2018-03-03T12:28:06.295Z,3.00
2018-03-03T12:30:34.703Z,3.00
2018-03-03T12:33:03.281Z,3.00
2018-03-03T12:35:31.693Z,3.00
2018-03-03T12:37:59.896Z,3.10
2018-03-03T12:40:28.307Z,3.10
2018-03-03T12:42:56.705Z,3.20
2018-03-03T12:45:25.412Z,3.20
2018-03-03T12:47:54.592Z,3.30
2018-03-03T12:50:23.009Z,3.30
2018-03-03T12:52:51.406Z,3.40
2018-03-03T12:55:19.798Z,3.40
2018-03-03T12:57:48.015Z,3.40
2018-03-03T13:00:17.188Z,3.50
2018-03-03T13:02:45.605Z,3.50
2018-03-03T13:05:14.760Z,3.40
2018-03-03T13:07:43.180Z,3.40
2018-03-03T13:10:12.332Z,3.50
2018-03-03T13:12:40.730Z,3.50
2018-03-03T13:15:09.328Z,3.60
2018-03-03T13:17:38.508Z,3.60
2018-03-03T13:20:06.920Z,3.60
2018-03-03T13:22:35.304Z,3.60
2018-03-03T13:25:03.703Z,3.70
2018-03-03T13:27:32.160Z,3.80
2018-03-03T13:30:00.717Z,3.80
2018-03-03T13:32:29.876Z,3.80
2018-03-03T13:34:58.290Z,3.80
2018-03-03T13:37:27.457Z,3.80
2018-03-03T13:39:55.848Z,3.80
2018-03-03T13:42:24.328Z,3.80
2018-03-03T13:44:52.737Z,3.80
2018-03-03T13:47:21.148Z,3.80
2018-03-03T13:49:49.540Z,3.70
2018-03-03T13:52:17.971Z,3.60
2018-03-03T13:54:46.398Z,3.60
2018-03-03T13:57:14.806Z,3.60
2018-03-03T13:59:43.996Z,3.60
2018-03-03T14:02:13.182Z,3.60
2018-03-03T14:04:41.609Z,3.50
2018-03-03T14:07:10.019Z,3.60
2018-03-03T14:09:38.431Z,3.60
2018-03-03T14:12:07.623Z,3.60
2018-03-03T14:14:36.184Z,3.50
2018-03-03T14:17:04.596Z,3.50
2018-03-03T14:19:33.770Z,3.50
2018-03-03T14:22:02.192Z,3.50
2018-03-03T14:24:30.574Z,3.50
2018-03-03T14:26:59.002Z,3.50
2018-03-03T14:29:27.391Z,3.60
2018-03-03T14:31:56.575Z,3.50
2018-03-03T14:34:25.125Z,3.50
2018-03-03T14:36:54.422Z,3.50
2018-03-03T14:39:22.826Z,3.50
2018-03-03T14:41:51.219Z,3.50
2018-03-03T14:44:19.468Z,3.50
2018-03-03T14:46:48.625Z,3.40
2018-03-03T14:49:17.008Z,3.40
2018-03-03T14:51:45.429Z,3.40
2018-03-03T14:54:13.826Z,3.30
2018-03-03T14:56:42.259Z,3.40
2018-03-03T14:59:10.686Z,3.30
2018-03-03T15:01:39.085Z,3.30
2018-03-03T15:04:07.475Z,3.30
2018-03-03T15:06:35.898Z,3.30
2018-03-03T15:09:03.455Z,3.40
2018-03-03T15:11:32.820Z,3.40
2018-03-03T15:14:01.257Z,3.40
2018-03-03T15:16:29.659Z,3.50
2018-03-03T15:18:58.063Z,3.40
2018-03-03T15:21:26.477Z,3.30
2018-03-03T15:23:55.545Z,3.30
2018-03-03T15:26:24.728Z,3.20
2018-03-03T15:28:54.422Z,3.10
2018-03-03T15:31:22.863Z,3.20
2018-03-03T15:33:51.255Z,3.20
2018-03-03T15:36:19.667Z,3.30
2018-03-03T15:38:48.076Z,3.30
2018-03-03T15:41:16.473Z,3.30
2018-03-03T15:43:44.897Z,3.20
2018-03-03T15:46:13.292Z,3.20
2018-03-03T15:48:42.482Z,3.20
2018-03-03T15:51:11.673Z,3.10
2018-03-03T15:53:39.773Z,3.10
2018-03-03T15:56:08.172Z,3.10
2018-03-03T15:58:36.565Z,3.00
2018-03-03T16:01:04.997Z,3.00
2018-03-03T16:03:33.959Z,3.00
2018-03-03T16:06:02.396Z,2.90
2018-03-03T16:08:30.789Z,3.00
2018-03-03T16:10:59.195Z,2.90
2018-03-03T16:13:27.637Z,2.90
2018-03-03T16:15:56.830Z,2.70
2018-03-03T16:18:25.219Z,2.80
2018-03-03T16:20:53.705Z,2.60
2018-03-03T16:23:22.100Z,2.70
2018-03-03T16:25:50.506Z,2.70
2018-03-03T16:28:19.676Z,2.80
2018-03-03T16:30:48.082Z,2.80
2018-03-03T16:33:17.285Z,2.70
2018-03-03T16:35:45.698Z,2.70
2018-03-03T16:38:14.101Z,2.70
2018-03-03T16:40:42.508Z,2.70
2018-03-03T16:43:11.661Z,2.50
2018-03-03T16:45:40.076Z,2.50
2018-03-03T16:48:09.237Z,2.50
2018-03-03T16:50:37.674Z,2.50
2018-03-03T16:53:05.871Z,2.50
2018-03-03T16:55:34.270Z,2.40
2018-03-03T16:58:02.694Z,2.40
2018-03-03T17:00:31.867Z,2.30
2018-03-03T17:03:00.264Z,2.30
2018-03-03T17:05:29.467Z,2.20
2018-03-03T17:07:57.851Z,2.20
2018-03-03T17:10:27.256Z,2.20
2018-03-03T17:12:56.332Z,2.10
2018-03-03T17:15:26.305Z,2.00
2018-03-03T17:17:54.716Z,2.00
2018-03-03T17:20:24.530Z,1.90
2018-03-03T17:22:53.754Z,1.80
2018-03-03T17:25:22.347Z,1.80
2018-03-03T17:27:50.756Z,1.80
2018-03-03T17:30:18.963Z,1.80
2018-03-03T17:32:48.172Z,1.70
2018-03-03T17:35:16.575Z,1.60
2018-03-03T17:37:45.751Z,1.60
2018-03-03T17:40:14.177Z,1.60
2018-03-03T17:42:42.625Z,1.60
2018-03-03T17:45:11.020Z,1.60
2018-03-03T17:47:39.426Z,1.50
2018-03-03T17:50:07.876Z,1.50
2018-03-03T17:52:36.281Z,1.50
2018-03-03T17:55:04.668Z,1.50
2018-03-03T17:57:33.861Z,1.40
2018-03-03T18:00:02.845Z,1.40
2018-03-03T18:02:31.235Z,1.40
2018-03-03T18:05:00.419Z,1.40
2018-03-03T18:07:28.817Z,1.40
2018-03-03T18:09:57.996Z,1.30
2018-03-03T18:12:26.673Z,1.30
2018-03-03T18:14:55.243Z,1.30
2018-03-03T18:17:23.722Z,1.30
2018-03-03T18:19:52.138Z,1.30
2018-03-03T18:22:21.303Z,1.30
2018-03-03T18:24:49.728Z,1.30
2018-03-03T18:27:18.125Z,1.30
2018-03-03T18:29:46.344Z,1.30
2018-03-03T18:32:14.446Z,1.30
2018-03-03T18:34:43.812Z,1.30
2018-03-03T18:37:12.241Z,1.30
2018-03-03T18:39:40.658Z,1.30
2018-03-03T18:42:09.081Z,1.30
2018-03-03T18:44:37.500Z,1.30
2018-03-03T18:47:06.072Z,1.20
2018-03-03T18:49:34.468Z,1.30
2018-03-03T18:52:02.902Z,1.30
2018-03-03T18:54:31.304Z,0.80
2018-03-03T18:56:59.715Z,1.10
2018-03-03T18:59:28.129Z,1.10
2018-03-03T19:01:57.473Z,1.00
2018-03-03T19:04:26.665Z,1.00
2018-03-03T19:06:55.865Z,1.00
2018-03-03T19:09:25.203Z,1.10
2018-03-03T19:11:55.001Z,1.00
2018-03-03T19:14:24.182Z,1.10
2018-03-03T19:16:52.584Z,1.00
2018-03-03T19:19:21.784Z,1.10
2018-03-03T19:21:50.948Z,1.00
2018-03-03T19:24:19.352Z,1.00
2018-03-03T19:26:48.536Z,1.00
2018-03-03T19:29:16.952Z,1.00
2018-03-03T19:31:45.353Z,1.00
2018-03-03T19:34:13.757Z,1.00
2018-03-03T19:36:42.195Z,1.00
2018-03-03T19:39:10.640Z,0.90
2018-03-03T19:41:39.214Z,0.90
2018-03-03T19:44:08.377Z,0.90
2018-03-03T19:46:36.793Z,0.80
2018-03-03T19:49:05.957Z,0.80
2018-03-03T19:51:34.180Z,0.80
2018-03-03T19:54:02.594Z,0.80
2018-03-03T19:56:31.780Z,0.80
2018-03-03T19:58:59.982Z,0.80
2018-03-03T20:01:28.395Z,0.80
2018-03-03T20:03:57.600Z,0.70
2018-03-03T20:06:26.000Z,0.70
2018-03-03T20:08:55.079Z,0.70
2018-03-03T20:11:25.145Z,0.70
2018-03-03T20:13:53.874Z,0.70
2018-03-03T20:16:22.424Z,0.70
2018-03-03T20:18:50.808Z,0.70
2018-03-03T20:21:19.206Z,0.70
2018-03-03T20:23:47.640Z,0.70
2018-03-03T20:26:16.046Z,0.70
2018-03-03T20:28:45.238Z,0.80
2018-03-03T20:31:14.395Z,0.80
2018-03-03T20:33:42.807Z,0.80
2018-03-03T20:36:11.239Z,0.80
2018-03-03T20:38:39.650Z,0.80
2018-03-03T20:41:08.092Z,0.80
2018-03-03T20:43:36.494Z,0.80
2018-03-03T20:46:04.906Z,0.90
2018-03-03T20:48:34.113Z,0.80
2018-03-03T20:51:03.293Z,0.90
2018-03-03T20:53:31.693Z,0.90
2018-03-03T20:56:00.116Z,0.90
2018-03-03T20:58:28.518Z,0.90
2018-03-03T21:00:56.940Z,0.90
2018-03-03T21:03:25.338Z,0.80
2018-03-03T21:05:53.864Z,0.90
2018-03-03T21:08:22.259Z,0.90
2018-03-03T21:10:51.241Z,0.90
2018-03-03T21:13:20.250Z,1.00
2018-03-03T21:15:48.659Z,0.90
2018-03-03T21:18:17.120Z,0.90
2018-03-03T21:20:45.526Z,0.90
2018-03-03T21:23:13.940Z,0.80
2018-03-03T21:25:43.136Z,0.80
2018-03-03T21:28:12.302Z,0.80
2018-03-03T21:30:40.727Z,0.70
2018-03-03T21:33:09.114Z,0.70
2018-03-03T21:35:37.509Z,0.80
2018-03-03T21:38:05.939Z,0.80
2018-03-03T21:40:34.340Z,0.80
2018-03-03T21:43:02.744Z,0.80
2018-03-03T21:45:31.171Z,0.80
2018-03-03T21:47:59.679Z,0.80
2018-03-03T21:50:28.076Z,0.80
2018-03-03T21:52:57.590Z,0.80
2018-03-03T21:55:26.767Z,0.80
2018-03-03T21:57:56.044Z,0.80
2018-03-03T22:00:26.131Z,0.80
2018-03-03T22:02:54.888Z,0.70
2018-03-03T22:05:23.338Z,0.80
2018-03-03T22:07:51.756Z,0.90
2018-03-03T22:10:20.164Z,0.90
2018-03-03T22:12:48.586Z,0.80
2018-03-03T22:15:16.971Z,0.80
2018-03-03T22:17:45.408Z,0.90
2018-03-03T22:20:14.589Z,0.80
2018-03-03T22:22:43.783Z,0.80
2018-03-03T22:25:12.045Z,0.80
2018-03-03T22:27:40.441Z,0.80
2018-03-03T22:30:09.613Z,0.80
2018-03-03T22:32:38.032Z,0.80
2018-03-03T22:35:07.215Z,0.70
2018-03-03T22:37:36.408Z,0.80
2018-03-03T22:40:04.480Z,0.80
2018-03-03T22:42:33.652Z,0.80
2018-03-03T22:45:02.087Z,0.80
2018-03-03T22:47:30.484Z,0.80
2018-03-03T22:49:58.910Z,0.80
2018-03-03T22:52:27.361Z,0.80
2018-03-03T22:54:56.597Z,0.80
2018-03-03T22:57:26.480Z,0.80
2018-03-03T22:59:55.508Z,0.80
2018-03-03T23:02:24.620Z,0.80
2018-03-03T23:04:53.034Z,0.90
2018-03-03T23:07:21.273Z,0.80
2018-03-03T23:09:49.665Z,0.90
2018-03-03T23:12:18.120Z,0.90
2018-03-03T23:14:46.519Z,0.90
2018-03-03T23:17:14.904Z,0.90
2018-03-03T23:19:43.321Z,0.90
2018-03-03T23:22:11.767Z,0.90
2018-03-03T23:24:39.976Z,0.90
2018-03-03T23:27:08.367Z,1.00
2018-03-03T23:29:37.653Z,0.90
2018-03-03T23:32:06.092Z,0.90
2018-03-03T23:34:34.485Z,1.00
2018-03-03T23:37:02.911Z,1.00
2018-03-03T23:39:31.503Z,1.00
2018-03-03T23:41:59.897Z,1.00
2018-03-03T23:44:28.323Z,1.10
2018-03-03T23:46:56.831Z,1.00
2018-03-03T23:49:25.501Z,1.00
2018-03-03T23:51:54.670Z,1.10
2018-03-03T23:54:23.075Z,1.00
2018-03-03T23:56:52.271Z,1.00
2018-03-03T23:59:21.445Z,1.00
